Time;durP1;ratioP1;P1;durP2;ratioP2;P2;SDS_P1;SDS_P2;PMS_P1;PMS_P2;Temp;Humidity;BMP_temperature;BMP_pressure;BME280_temperature;BME280_humidity;BME280_pressure;Samples;Min_cycle;Max_cycle;Signal;HPM_P1;HPM_P2
2023/08/14 00:01:11;;;;;;;5.03;2.90;;;;;;;20.47;100.00;98909.72;5006088;28;20469;-61
2023/08/14 00:03:37;;;;;;;3.35;2.15;;;;;;;20.46;100.00;98904.47;5008834;28;20021;-60
2023/08/14 00:06:02;;;;;;;5.13;2.58;;;;;;;20.45;100.00;98900.06;5030698;28;20051;-60
2023/08/14 00:08:27;;;;;;;4.32;2.20;;;;;;;20.42;100.00;98898.69;5017956;28;20489;-61
2023/08/14 00:10:54;;;;;;;4.22;2.60;;;;;;;20.39;100.00;98901.16;5014742;28;20091;-61
2023/08/14 00:13:20;;;;;;;5.35;2.20;;;;;;;20.34;100.00;98900.00;5011396;28;20025;-61
2023/08/14 00:15:46;;;;;;;6.75;2.50;;;;;;;20.35;100.00;98889.84;5008625;28;20072;-60
2023/08/14 00:18:11;;;;;;;3.42;2.42;;;;;;;20.38;100.00;98893.97;5008976;28;20095;-60
2023/08/14 00:20:37;;;;;;;8.20;3.00;;;;;;;20.41;100.00;98894.28;5004968;28;20496;-60
2023/08/14 00:23:02;;;;;;;7.38;2.70;;;;;;;20.44;100.00;98895.69;5011232;28;20492;-60
2023/08/14 00:25:28;;;;;;;5.90;2.67;;;;;;;20.42;100.00;98886.88;5012580;28;20040;-60
2023/08/14 00:27:53;;;;;;;8.35;2.80;;;;;;;20.50;100.00;98891.88;5008008;28;20216;-60
2023/08/14 00:30:19;;;;;;;6.10;2.58;;;;;;;20.46;100.00;98886.09;5013606;28;20024;-60
2023/08/14 00:32:44;;;;;;;5.70;2.40;;;;;;;20.40;100.00;98892.63;5017657;28;20388;-61
2023/08/14 00:35:10;;;;;;;4.45;2.70;;;;;;;20.28;100.00;98883.78;5006450;28;20120;-60
2023/08/14 00:37:43;;;;;;;7.75;3.22;;;;;;;20.23;100.00;98881.00;5012744;28;20030;-60
2023/08/14 00:40:10;;;;;;;10.65;3.15;;;;;;;20.19;100.00;98890.84;5010898;28;20025;-60
2023/08/14 00:42:38;;;;;;;6.95;3.05;;;;;;;20.15;100.00;98893.28;5007174;28;20040;-60
2023/08/14 00:45:03;;;;;;;6.20;2.60;;;;;;;20.13;100.00;98892.72;5000646;28;20390;-64
2023/08/14 00:47:29;;;;;;;4.22;2.75;;;;;;;20.09;100.00;98894.31;5010909;28;20022;-61
2023/08/14 00:49:54;;;;;;;5.53;3.05;;;;;;;20.10;100.00;98882.28;5016156;28;20025;-61
2023/08/14 00:52:21;;;;;;;7.78;2.75;;;;;;;20.20;100.00;98890.59;5011441;28;20026;-61
2023/08/14 00:54:46;;;;;;;11.15;2.97;;;;;;;20.28;100.00;98887.34;5014081;28;20029;-60
2023/08/14 00:57:11;;;;;;;7.40;3.00;;;;;;;20.27;100.00;98891.16;5012564;28;20071;-61
2023/08/14 00:59:37;;;;;;;6.53;3.20;;;;;;;20.29;100.00;98902.72;5007133;28;20022;-60
2023/08/14 01:02:02;;;;;;;5.68;2.85;;;;;;;20.29;100.00;98908.22;5005712;28;20476;-61
2023/08/14 01:04:28;;;;;;;3.60;2.65;;;;;;;20.29;100.00;98907.41;5003801;28;20017;-61
2023/08/14 01:06:53;;;;;;;6.10;2.50;;;;;;;20.26;100.00;98903.25;5014741;28;20477;-60
2023/08/14 01:09:19;;;;;;;4.75;2.10;;;;;;;20.23;100.00;98900.22;5003388;28;20026;-61
2023/08/14 01:12:02;;;;;;;9.25;2.17;;;;;;;20.25;100.00;98909.00;5001550;28;20026;-60
2023/08/14 01:14:33;;;;;;;4.78;2.55;;;;;;;20.23;100.00;98909.28;5015796;28;20468;-61
2023/08/14 01:17:05;;;;;;;4.50;2.85;;;;;;;20.18;100.00;98909.25;5008421;28;20040;-61
2023/08/14 01:19:37;;;;;;;3.63;2.97;;;;;;;20.13;100.00;98898.22;5010928;28;20384;-61
2023/08/14 01:22:14;;;;;;;7.78;2.88;;;;;;;20.11;100.00;98889.41;5008083;28;20087;-60
2023/08/14 01:24:42;;;;;;;4.85;2.92;;;;;;;20.05;100.00;98880.31;5012567;28;20021;-60
2023/08/14 01:27:08;;;;;;;13.40;3.60;;;;;;;20.02;100.00;98864.34;5007825;28;20026;-60
2023/08/14 01:29:34;;;;;;;6.15;3.22;;;;;;;19.99;100.00;98869.53;5011926;28;20389;-61
2023/08/14 01:31:59;;;;;;;5.53;3.63;;;;;;;19.99;100.00;98855.81;5006312;28;20021;-60
2023/08/14 01:34:24;;;;;;;7.97;3.42;;;;;;;20.04;100.00;98851.19;5004361;28;20036;-60
2023/08/14 01:37:16;;;;;;;7.72;3.65;;;;;;;20.09;100.00;98855.88;5013509;28;20440;-61
2023/08/14 01:39:48;;;;;;;7.32;3.42;;;;;;;20.17;100.00;98855.38;5007811;28;20033;-61
2023/08/14 01:42:13;;;;;;;8.20;3.33;;;;;;;20.27;100.00;98860.13;5007737;28;20081;-61
2023/08/14 01:44:42;;;;;;;7.53;3.78;;;;;;;20.34;100.00;98867.03;5014585;28;20130;-60
2023/08/14 01:47:12;;;;;;;6.03;3.13;;;;;;;20.33;100.00;98857.16;5003658;28;20052;-61
2023/08/14 01:49:39;;;;;;;8.60;3.90;;;;;;;20.27;100.00;98860.94;5007691;28;20029;-60
2023/08/14 01:52:05;;;;;;;6.78;3.60;;;;;;;20.27;100.00;98871.94;5005530;28;20489;-60
2023/08/14 01:54:31;;;;;;;6.68;3.58;;;;;;;20.31;100.00;98881.31;5032891;28;20469;-60
2023/08/14 01:56:56;;;;;;;8.60;3.80;;;;;;;20.34;100.00;98874.47;5004965;28;20102;-61
2023/08/14 01:59:33;;;;;;;4.63;3.20;;;;;;;20.25;100.00;98876.88;5009308;28;20491;-61
2023/08/14 02:01:58;;;;;;;5.40;3.83;;;;;;;20.22;100.00;98880.13;5026450;28;20037;-61
2023/08/14 02:04:24;;;;;;;6.90;4.10;;;;;;;20.29;100.00;98897.22;5015421;28;20071;-60
2023/08/14 02:06:49;;;;;;;4.78;3.17;;;;;;;20.30;100.00;98904.41;5006581;28;20033;-61
2023/08/14 02:09:14;;;;;;;7.15;3.58;;;;;;;20.28;100.00;98906.56;5009184;28;20022;-60
2023/08/14 02:11:40;;;;;;;8.63;4.05;;;;;;;20.15;100.00;98885.06;5012312;28;20076;-61
2023/08/14 02:14:05;;;;;;;5.28;4.18;;;;;;;20.05;100.00;98880.31;5013332;28;20033;-61
2023/08/14 02:16:30;;;;;;;5.28;4.25;;;;;;;20.05;100.00;98884.97;5006167;28;20030;-62
2023/08/14 02:18:56;;;;;;;7.75;4.32;;;;;;;20.01;100.00;98867.34;4996466;28;20050;-61
2023/08/14 02:21:21;;;;;;;6.20;4.47;;;;;;;20.03;100.00;98871.50;5005475;28;20034;-61
2023/08/14 02:23:47;;;;;;;10.40;4.60;;;;;;;20.09;100.00;98872.34;5006304;28;20036;-62
2023/08/14 02:26:12;;;;;;;5.85;4.25;;;;;;;20.13;100.00;98865.25;5010772;28;20026;-62
2023/08/14 02:28:38;;;;;;;7.28;4.72;;;;;;;20.14;100.00;98872.41;5011275;28;20057;-62
2023/08/14 02:31:04;;;;;;;9.52;4.38;;;;;;;20.15;100.00;98868.56;5004758;28;20076;-62
2023/08/14 02:33:29;;;;;;;12.30;4.93;;;;;;;20.14;100.00;98877.88;5000948;28;20026;-61
2023/08/14 02:35:55;;;;;;;7.50;4.93;;;;;;;20.17;100.00;98871.84;5001510;28;20061;-61
2023/08/14 02:38:20;;;;;;;7.00;4.80;;;;;;;20.12;100.00;98869.94;4998390;28;20025;-61
2023/08/14 02:40:45;;;;;;;11.05;5.10;;;;;;;20.14;100.00;98867.72;5003257;28;20025;-62
2023/08/14 02:43:11;;;;;;;11.63;5.05;;;;;;;20.09;100.00;98858.63;5020495;28;20029;-61
2023/08/14 02:45:37;;;;;;;10.02;4.95;;;;;;;20.09;100.00;98844.88;5008466;28;20031;-62
2023/08/14 02:51:19;;;;;;;7.60;5.30;;;;;;;20.09;100.00;98842.97;5065402;28;20036;-61
2023/08/14 02:53:45;;;;;;;12.10;6.35;;;;;;;20.09;100.00;98847.63;5051883;28;20052;-62
2023/08/14 02:56:10;;;;;;;9.07;5.70;;;;;;;20.22;100.00;98849.91;5041517;28;20025;-61
2023/08/14 02:58:36;;;;;;;7.28;4.93;;;;;;;20.24;100.00;98847.72;5036153;28;20029;-62
2023/08/14 03:01:04;;;;;;;7.80;4.85;;;;;;;20.26;100.00;98847.47;5046854;28;20083;-62
2023/08/14 03:03:29;;;;;;;6.53;3.88;;;;;;;20.24;100.00;98838.66;5034924;28;20143;-62
2023/08/14 03:05:57;;;;;;;5.82;3.90;;;;;;;20.21;100.00;98828.22;5048475;28;20150;-62
2023/08/14 03:08:23;;;;;;;5.93;3.72;;;;;;;20.19;100.00;98830.41;5045752;28;20024;-63
2023/08/14 03:10:48;;;;;;;8.57;3.72;;;;;;;20.17;100.00;98827.91;5039747;28;20047;-62
2023/08/14 03:13:14;;;;;;;6.97;4.68;;;;;;;20.12;100.00;98817.75;5035123;28;20036;-61
2023/08/14 03:15:40;;;;;;;6.97;4.85;;;;;;;20.09;100.00;98815.50;5040804;28;20036;-62
2023/08/14 03:18:06;;;;;;;7.13;4.60;;;;;;;20.05;100.00;98824.56;5038851;28;20120;-62
2023/08/14 03:20:32;;;;;;;5.85;4.45;;;;;;;20.06;100.00;98826.19;5048248;28;20480;-62
2023/08/14 03:22:57;;;;;;;6.15;4.63;;;;;;;20.08;100.00;98841.31;5046590;28;20372;-62
2023/08/14 03:25:23;;;;;;;5.95;4.40;;;;;;;20.08;100.00;98848.75;5050036;28;20025;-62
2023/08/14 03:27:48;;;;;;;8.93;4.70;;;;;;;20.06;100.00;98850.91;5051647;28;20495;-61
2023/08/14 03:30:14;;;;;;;8.15;4.70;;;;;;;20.00;100.00;98860.22;5044184;28;20013;-62
2023/08/14 03:32:39;;;;;;;7.30;4.82;;;;;;;19.96;100.00;98859.06;5056764;28;20131;-62
2023/08/14 03:35:05;;;;;;;11.07;4.88;;;;;;;19.85;100.00;98853.50;5053455;28;20029;-62
2023/08/14 03:37:30;;;;;;;7.28;4.55;;;;;;;19.83;100.00;98855.72;5060808;28;20067;-62
2023/08/14 03:39:55;;;;;;;7.97;4.85;;;;;;;19.78;100.00;98861.16;5049588;28;20855;-61
2023/08/14 03:42:21;;;;;;;4.65;3.92;;;;;;;19.74;100.00;98861.94;5048765;28;20028;-62
2023/08/14 03:44:46;;;;;;;7.53;3.90;;;;;;;19.65;100.00;98872.53;5052379;28;20108;-62
2023/08/14 03:47:12;;;;;;;6.90;4.10;;;;;;;19.61;100.00;98877.72;5048212;28;20032;-61
2023/08/14 03:49:37;;;;;;;8.27;4.20;;;;;;;19.55;100.00;98869.72;5048204;28;20060;-62
2023/08/14 03:52:03;;;;;;;7.43;4.72;;;;;;;19.52;100.00;98873.81;5051653;28;20108;-61
2023/08/14 03:54:28;;;;;;;8.13;5.07;;;;;;;19.47;100.00;98863.59;5047910;28;20479;-62
2023/08/14 03:56:54;;;;;;;5.88;4.85;;;;;;;19.42;100.00;98859.97;5047811;28;20056;-61
2023/08/14 03:59:19;;;;;;;9.38;5.22;;;;;;;19.38;100.00;98876.09;5052401;28;20032;-61
2023/08/14 04:01:46;;;;;;;7.97;5.03;;;;;;;19.38;100.00;98867.88;5049912;28;20036;-61
2023/08/14 04:04:11;;;;;;;8.13;5.20;;;;;;;19.35;100.00;98854.69;5047964;28;20017;-60
2023/08/14 04:06:37;;;;;;;12.00;4.70;;;;;;;19.30;100.00;98857.38;5041781;28;20475;-61
2023/08/14 04:09:03;;;;;;;6.00;4.22;;;;;;;19.25;100.00;98863.63;5046041;28;20115;-60
2023/08/14 04:11:30;;;;;;;5.65;3.72;;;;;;;19.20;100.00;98871.84;5053791;28;20032;-60
2023/08/14 04:13:56;;;;;;;6.43;4.15;;;;;;;19.19;100.00;98872.91;5055621;28;20025;-60
2023/08/14 04:16:22;;;;;;;8.32;4.35;;;;;;;19.13;100.00;98870.38;5050405;28;20025;-60
2023/08/14 04:18:48;;;;;;;7.60;4.15;;;;;;;19.05;100.00;98874.41;5045443;28;20025;-60
2023/08/14 04:21:13;;;;;;;6.25;3.80;;;;;;;19.03;100.00;98880.13;5051852;28;20078;-60
2023/08/14 04:23:39;;;;;;;5.75;4.07;;;;;;;18.99;100.00;98872.66;5046248;28;20036;-60
2023/08/14 04:26:04;;;;;;;6.55;4.18;;;;;;;18.95;100.00;98880.59;5041116;28;20036;-60
2023/08/14 04:28:30;;;;;;;5.90;4.38;;;;;;;18.96;100.00;98868.53;5044142;28;20480;-62
2023/08/14 04:30:55;;;;;;;6.10;4.07;;;;;;;18.97;100.00;98874.88;5053680;28;20456;-60
2023/08/14 04:33:20;;;;;;;8.07;4.65;;;;;;;18.92;100.00;98870.16;5078641;28;20043;-61
2023/08/14 04:35:46;;;;;;;6.97;3.85;;;;;;;18.89;100.00;98859.69;5052682;28;20028;-60
2023/08/14 04:38:11;;;;;;;8.98;4.03;;;;;;;18.91;100.00;98865.72;5047528;28;20020;-60
2023/08/14 04:40:37;;;;;;;6.05;3.72;;;;;;;18.92;100.00;98872.06;5043902;28;20434;-60
2023/08/14 04:43:03;;;;;;;10.73;3.63;;;;;;;18.90;100.00;98880.53;5038261;28;20112;-60
2023/08/14 04:45:28;;;;;;;7.97;3.80;;;;;;;18.93;100.00;98874.53;5052036;28;20146;-60
2023/08/14 04:47:54;;;;;;;5.82;4.18;;;;;;;18.92;100.00;98880.28;5046102;28;20037;-60
2023/08/14 04:50:19;;;;;;;6.78;4.05;;;;;;;18.96;100.00;98889.63;5037121;28;20017;-60
2023/08/14 04:52:44;;;;;;;4.95;3.72;;;;;;;18.99;100.00;98876.28;5038251;28;20036;-60
2023/08/14 04:55:10;;;;;;;7.93;4.38;;;;;;;19.02;100.00;98888.59;5051380;28;20095;-60
2023/08/14 04:57:35;;;;;;;8.73;3.97;;;;;;;19.03;100.00;98896.59;5040432;28;20028;-60
2023/08/14 05:00:01;;;;;;;8.02;4.15;;;;;;;19.07;100.00;98885.09;5045001;28;20029;-60
2023/08/14 05:02:29;;;;;;;7.93;4.35;;;;;;;19.07;100.00;98879.63;5048265;28;20037;-59
2023/08/14 05:04:54;;;;;;;9.50;3.90;;;;;;;19.17;100.00;98887.97;5056148;28;20020;-59
2023/08/14 05:07:20;;;;;;;6.03;4.00;;;;;;;19.32;100.00;98879.06;5039125;28;20353;-61
2023/08/14 05:09:48;;;;;;;6.78;3.55;;;;;;;19.27;100.00;98877.94;5044254;28;20071;-59
2023/08/14 05:12:13;;;;;;;5.53;3.90;;;;;;;19.32;100.00;98868.94;5106550;22;20086;-76
2023/08/14 05:14:38;;;;;;;7.57;3.70;;;;;;;19.41;100.00;98859.16;5065206;28;20383;-75
2023/08/14 05:17:04;;;;;;;7.22;3.08;;;;;;;19.45;100.00;98848.47;5055075;28;20086;-71
2023/08/14 05:19:29;;;;;;;4.47;3.20;;;;;;;19.58;100.00;98844.47;5060660;28;20020;-72
2023/08/14 05:21:54;;;;;;;8.75;3.00;;;;;;;19.70;100.00;98823.19;5048622;28;20448;-76
2023/08/14 05:24:20;;;;;;;5.13;3.33;;;;;;;19.78;100.00;98813.63;5033934;28;20442;-76
2023/08/14 05:26:45;;;;;;;7.40;3.30;;;;;;;20.10;100.00;98819.09;5051320;28;20095;-75
2023/08/14 05:29:10;;;;;;;6.85;3.30;;;;;;;20.52;100.00;98826.47;5035719;28;20220;-75
2023/08/14 05:31:36;;;;;;;5.38;3.30;;;;;;;20.62;100.00;98801.81;5046129;28;20359;-75
2023/08/14 05:34:01;;;;;;;3.65;2.50;;;;;;;20.94;100.00;98803.56;5043839;28;20039;-75
2023/08/14 05:36:26;;;;;;;3.97;2.30;;;;;;;21.31;100.00;98791.50;5044424;28;20032;-81
2023/08/14 05:38:52;;;;;;;5.05;2.30;;;;;;;21.81;100.00;98784.38;5042754;28;20025;-81
2023/08/14 05:41:18;;;;;;;2.33;1.80;;;;;;;21.94;100.00;98739.72;5019457;28;20028;-79
2023/08/14 05:43:44;;;;;;;4.50;2.05;;;;;;;22.51;100.00;98738.44;5026103;28;20083;-77
2023/08/14 05:46:09;;;;;;;3.38;1.58;;;;;;;22.51;100.00;98723.84;5029718;28;20029;-77
2023/08/14 05:48:34;;;;;;;5.35;1.92;;;;;;;22.56;100.00;98695.38;5045573;28;20044;-77
2023/08/14 05:51:00;;;;;;;6.75;1.42;;;;;;;22.65;100.00;98719.31;5034634;28;20057;-78
2023/08/14 05:53:25;;;;;;;4.88;1.63;;;;;;;22.60;100.00;98718.53;5044483;28;20023;-75
2023/08/14 05:55:50;;;;;;;2.83;1.40;;;;;;;22.28;100.00;98711.53;5043829;28;20296;-79
2023/08/14 05:58:16;;;;;;;3.55;1.52;;;;;;;22.39;100.00;98739.88;5044253;28;20024;-78
2023/08/14 06:00:41;;;;;;;4.32;1.60;;;;;;;22.33;100.00;98736.31;5047924;28;20261;-78
2023/08/14 06:03:08;;;;;;;5.60;1.48;;;;;;;22.26;100.00;98720.06;5031865;28;20482;-74
2023/08/14 06:05:34;;;;;;;2.28;1.50;;;;;;;22.26;100.00;98724.75;5037531;28;20032;-79
2023/08/14 06:08:00;;;;;;;3.67;1.42;;;;;;;22.38;100.00;98717.00;5017642;28;20084;-81
2023/08/14 06:10:26;;;;;;;2.45;1.70;;;;;;;22.53;100.00;98703.16;5016833;28;20022;-80
2023/08/14 06:12:51;;;;;;;6.43;1.63;;;;;;;22.71;100.00;98711.84;5026149;28;20040;-80
2023/08/14 06:15:19;;;;;;;4.30;1.98;;;;;;;;;;5042664;28;20040;-80
2023/08/14 06:17:44;;;;;;;3.88;1.75;;;;;;;22.88;100.00;98730.78;5033434;28;20029;-79
2023/08/14 06:20:11;;;;;;;5.60;1.90;;;;;;;22.72;100.00;98730.06;5026057;28;20025;-80
2023/08/14 06:22:40;;;;;;;3.50;2.08;;;;;;;22.73;100.00;98739.97;5029798;28;20478;-78
2023/08/14 06:25:07;;;;;;;3.45;1.73;;;;;;;22.68;100.00;98742.75;5036935;28;20044;-76
2023/08/14 06:27:32;;;;;;;2.47;1.70;;;;;;;22.60;100.00;98729.56;5039758;28;20036;-75
2023/08/14 06:29:57;;;;;;;3.70;1.77;;;;;;;22.46;100.00;98741.22;5043162;28;20435;-75
2023/08/14 06:32:22;;;;;;;2.80;1.60;;;;;;;22.53;100.00;98750.00;5040869;28;20017;-75
2023/08/14 06:34:48;;;;;;;4.05;1.90;;;;;;;22.50;100.00;98736.78;5022934;28;20024;-73
2023/08/14 06:37:13;;;;;;;2.78;1.60;;;;;;;22.62;100.00;98750.25;5033787;28;20029;-75
2023/08/14 06:39:38;;;;;;;3.47;1.90;;;;;;;22.48;100.00;98729.91;5047848;28;20028;-75
2023/08/14 06:42:04;;;;;;;3.13;1.90;;;;;;;22.61;100.00;98723.78;5017156;28;20163;-74
2023/08/14 06:44:29;;;;;;;2.15;1.50;;;;;;;22.52;100.00;98718.03;5045644;28;20114;-75
2023/08/14 06:46:54;;;;;;;2.55;1.83;;;;;;;22.49;100.00;98707.56;5044685;28;20028;-74
2023/08/14 06:49:20;;;;;;;2.42;1.55;;;;;;;22.45;100.00;98694.63;5026085;28;20470;-75
2023/08/14 06:51:45;;;;;;;3.05;1.67;;;;;;;22.46;100.00;98712.84;5034494;28;20036;-74
2023/08/14 06:54:10;;;;;;;2.85;1.80;;;;;;;22.68;100.00;98717.94;5037855;28;20033;-75
2023/08/14 06:56:36;;;;;;;3.55;2.10;;;;;;;22.59;100.00;98716.91;5040026;28;20057;-75
2023/08/14 06:59:01;;;;;;;4.60;2.00;;;;;;;22.89;100.00;98718.63;5044068;28;20418;-74
2023/08/14 07:01:27;;;;;;;6.55;2.28;;;;;;;22.93;100.00;98715.03;5039580;28;20021;-74
2023/08/14 07:03:52;;;;;;;3.05;1.75;;;;;;;25.16;100.00;98696.53;5041641;28;20021;-74
2023/08/14 07:06:18;;;;;;;2.88;1.30;;;;;;;29.17;100.00;98679.03;5038437;28;20486;-73
2023/08/14 07:08:43;;;;;;;2.75;1.50;;;;;;;32.38;100.00;98664.66;5014987;28;20021;-76
2023/08/14 07:11:08;;;;;;;7.00;2.00;;;;;;;32.72;100.00;98680.19;5036700;28;20064;-78
2023/08/14 07:13:34;;;;;;;1.80;1.30;;;;;;;35.90;84.87;98691.13;5042059;28;20037;-79
2023/08/14 07:15:59;;;;;;;3.58;1.58;;;;;;;36.64;72.91;98680.28;5039407;28;20043;-77
2023/08/14 07:18:24;;;;;;;4.30;1.33;;;;;;;37.85;65.18;98679.34;5021615;28;20393;-72
2023/08/14 07:20:50;;;;;;;2.53;0.98;;;;;;;37.02;66.72;98681.22;5047759;28;20086;-79
2023/08/14 07:23:16;;;;;;;2.45;1.08;;;;;;;37.89;58.91;98681.00;5042365;28;20033;-78
2023/08/14 07:25:42;;;;;;;3.58;1.30;;;;;;;38.92;54.13;98671.69;5029619;28;20413;-78
2023/08/14 07:28:07;;;;;;;2.10;1.10;;;;;;;39.20;51.65;98679.50;5038319;28;20072;-77
2023/08/14 07:30:32;;;;;;;1.98;0.90;;;;;;;39.23;51.03;98675.88;5043970;28;20039;-77
2023/08/14 07:32:58;;;;;;;3.53;1.38;;;;;;;39.58;50.80;98682.06;5042440;28;20021;-79
2023/08/14 07:35:23;;;;;;;2.60;1.10;;;;;;;38.74;50.21;98671.56;5041069;28;20061;-79
2023/08/14 07:37:48;;;;;;;1.40;0.80;;;;;;;39.51;48.23;98674.38;5029057;28;20029;-80
2023/08/14 07:40:14;;;;;;;1.58;1.05;;;;;;;38.71;49.52;98663.88;5025866;28;20120;-79
2023/08/14 07:42:39;;;;;;;2.17;1.10;;;;;;;38.31;50.34;98659.19;5021551;28;20021;-79
2023/08/14 07:45:05;;;;;;;1.60;1.00;;;;;;;39.21;49.24;98660.50;5040434;28;20099;-79
2023/08/14 07:47:30;;;;;;;2.13;1.10;;;;;;;39.62;48.58;98671.56;5031237;28;20633;-78
2023/08/14 07:49:56;;;;;;;1.73;0.85;;;;;;;39.78;48.07;98655.00;5049184;28;20056;-77
2023/08/14 07:52:21;;;;;;;1.67;1.00;;;;;;;40.35;46.31;98667.56;5034583;28;20041;-79
2023/08/14 07:54:46;;;;;;;3.03;0.98;;;;;;;40.17;46.92;98665.53;5041605;28;20290;-77
2023/08/14 07:57:11;;;;;;;1.27;1.03;;;;;;;39.63;47.31;98673.97;5045820;28;20055;-77
2023/08/14 07:59:37;;;;;;;2.17;1.13;;;;;;;39.61;46.59;98664.25;5029208;28;20286;-78
2023/08/14 08:02:02;;;;;;;2.23;1.00;;;;;;;39.82;46.79;98667.13;5035879;28;20039;-77
2023/08/14 08:04:29;;;;;;;2.20;1.10;;;;;;;40.33;46.36;98665.16;5047171;28;20279;-79
2023/08/14 08:06:55;;;;;;;2.28;1.10;;;;;;;40.59;45.06;98672.41;5037227;28;20021;-78
2023/08/14 08:09:20;;;;;;;3.70;1.00;;;;;;;40.72;44.93;98656.59;5038169;28;20076;-78
2023/08/14 08:11:45;;;;;;;1.08;0.88;;;;;;;40.73;43.07;98658.19;5048502;28;20442;-76
2023/08/14 08:14:11;;;;;;;2.28;1.20;;;;;;;40.43;43.84;98664.31;5041658;28;20497;-78
2023/08/14 08:16:36;;;;;;;2.33;1.10;;;;;;;40.86;43.18;98663.44;5032807;28;20025;-79
2023/08/14 08:19:04;;;;;;;1.65;0.90;;;;;;;41.52;43.07;98655.03;5047364;28;20481;-82
2023/08/14 08:21:29;;;;;;;1.17;0.80;;;;;;;42.54;41.31;98656.66;5043234;28;20028;-80
2023/08/14 08:23:54;;;;;;;1.25;0.80;;;;;;;41.78;42.17;98669.88;5048143;28;20386;-76
2023/08/14 08:26:20;;;;;;;2.40;1.10;;;;;;;41.39;42.54;98668.06;5041157;28;20025;-74
2023/08/14 08:28:45;;;;;;;2.72;0.80;;;;;;;41.24;42.62;98672.19;5032405;28;20287;-78
2023/08/14 08:31:10;;;;;;;3.75;0.95;;;;;;;41.76;41.39;98664.59;5045569;28;20029;-80
2023/08/14 08:33:36;;;;;;;1.63;0.90;;;;;;;41.22;41.91;98663.31;5030999;28;20026;-79
2023/08/14 08:36:01;;;;;;;4.53;1.33;;;;;;;41.23;42.37;98679.91;5036350;28;20099;-82
2023/08/14 08:38:26;;;;;;;3.00;0.95;;;;;;;41.46;43.25;98672.91;5043590;28;20275;-81
2023/08/14 08:40:52;;;;;;;1.60;0.80;;;;;;;41.79;41.85;98680.00;5049589;28;20025;-76
2023/08/14 08:43:20;;;;;;;1.33;0.80;;;;;;;41.54;42.32;98672.47;5044628;28;20545;-73
2023/08/14 08:45:49;;;;;;;2.47;1.00;;;;;;;40.82;43.26;98679.63;5047872;28;20043;-74
2023/08/14 08:48:18;;;;;;;1.98;0.80;;;;;;;41.66;42.04;98673.19;5054942;28;20025;-79
2023/08/14 08:50:44;;;;;;;2.25;1.10;;;;;;;40.38;44.75;98684.59;5028754;28;20032;-78
2023/08/14 08:53:10;;;;;;;0.95;0.80;;;;;;;41.91;43.06;98676.66;5048498;28;20372;-78
2023/08/14 08:55:36;;;;;;;2.95;1.30;;;;;;;40.88;43.31;98680.84;5021965;28;20025;-77
2023/08/14 08:58:03;;;;;;;3.83;1.10;;;;;;;41.87;42.26;98678.75;5036975;28;20044;-77
2023/08/14 09:00:29;;;;;;;0.90;0.77;;;;;;;42.55;41.98;98683.06;5032056;28;20501;-76
2023/08/14 09:02:54;;;;;;;2.55;1.00;;;;;;;42.34;41.52;98684.91;5053231;28;20029;-76
2023/08/14 09:05:20;;;;;;;2.07;0.83;;;;;;;41.95;42.46;98680.34;5030070;28;20174;-79
2023/08/14 09:07:45;;;;;;;3.35;0.90;;;;;;;41.29;42.55;98675.41;5039896;28;20284;-78
2023/08/14 09:10:11;;;;;;;1.33;0.93;;;;;;;40.91;44.66;98672.31;5059979;28;20028;-80
2023/08/14 09:12:36;;;;;;;1.05;0.80;;;;;;;42.14;43.31;98672.47;5030361;28;20025;-74
2023/08/14 09:15:07;;;;;;;2.88;1.00;;;;;;;41.38;43.11;98674.97;5046123;28;20481;-74
2023/08/14 09:17:33;;;;;;;1.40;0.95;;;;;;;42.65;42.92;98676.44;5051323;28;20029;-73
2023/08/14 09:19:58;;;;;;;6.18;0.80;;;;;;;44.00;38.97;98678.81;5043339;28;20017;-75
2023/08/14 09:22:29;;;;;;;2.58;0.65;;;;;;;43.21;41.27;98679.13;5046716;28;20659;-75
2023/08/14 09:24:57;;;;;;;1.52;0.68;;;;;;;43.26;40.68;98678.59;5038295;28;20033;-75
2023/08/14 09:27:26;;;;;;;2.13;0.88;;;;;;;44.53;38.87;98674.22;5030678;28;20707;-76
2023/08/14 09:29:53;;;;;;;2.03;0.80;;;;;;;44.65;37.76;98674.81;5019536;28;20045;-75
2023/08/14 09:32:25;;;;;;;0.73;0.68;;;;;;;43.43;39.45;98666.16;5046782;28;20029;-75
2023/08/14 09:34:58;;;;;;;2.65;0.75;;;;;;;44.07;37.80;98661.59;5053961;28;20540;-75
2023/08/14 09:37:25;;;;;;;2.90;0.80;;;;;;;44.98;37.40;98662.34;5056407;28;20025;-75
2023/08/14 09:40:14;;;;;;;1.00;0.80;;;;;;;42.94;38.11;98657.03;5055900;28;20025;-75
2023/08/14 09:42:41;;;;;;;4.05;0.95;;;;;;;42.96;38.47;98659.47;5031411;28;20036;-76
2023/08/14 09:45:07;;;;;;;2.33;0.77;;;;;;;43.60;38.34;98658.66;5050241;28;20064;-76
2023/08/14 09:47:33;;;;;;;1.10;0.82;;;;;;;43.89;37.41;98664.69;5051491;28;20040;-75
2023/08/14 09:49:58;;;;;;;2.65;0.70;;;;;;;43.58;37.27;98644.00;5042412;28;20025;-75
2023/08/14 09:52:24;;;;;;;3.85;0.90;;;;;;;42.71;38.72;98654.03;5048915;28;20025;-76
2023/08/14 09:54:50;;;;;;;4.20;0.90;;;;;;;42.94;39.06;98653.38;5043881;28;20115;-75
2023/08/14 09:57:16;;;;;;;1.42;0.80;;;;;;;43.33;38.15;98662.22;5037138;28;20086;-75
2023/08/14 09:59:41;;;;;;;2.35;1.00;;;;;;;42.65;38.52;98651.66;5026391;28;20057;-75
2023/08/14 10:02:15;;;;;;;1.75;0.90;;;;;;;41.32;40.14;98663.25;5045554;28;20033;-75
2023/08/14 10:04:43;;;;;;;1.95;0.82;;;;;;;39.75;42.59;98643.63;5029479;28;20036;-76
2023/08/14 10:07:09;;;;;;;5.20;1.02;;;;;;;39.28;44.66;98652.03;5043100;28;20025;-76
2023/08/14 10:09:40;;;;;;;1.55;0.80;;;;;;;40.01;43.52;98651.78;5049991;28;20029;-76
2023/08/14 10:12:11;;;;;;;3.08;1.00;;;;;;;43.15;39.76;98647.41;5022441;28;20379;-75
2023/08/14 10:14:38;;;;;;;3.50;1.08;;;;;;;43.44;38.96;98644.19;5009523;28;20033;-76
2023/08/14 10:17:11;;;;;;;2.17;1.02;;;;;;;44.12;37.49;98649.66;5038710;28;20079;-76
2023/08/14 10:19:39;;;;;;;2.47;0.90;;;;;;;45.21;36.54;98635.75;5034635;28;20067;-76
2023/08/14 10:22:06;;;;;;;;;;;;;;;45.17;35.51;98643.63;5047427;28;20028;-76
2023/08/14 10:24:37;;;;;;;2.70;0.90;;;;;;;44.61;37.44;98649.19;5037739;28;19912;-76
2023/08/14 10:27:04;;;;;;;1.73;0.90;;;;;;;43.14;37.67;98642.16;5033791;28;20033;-76
2023/08/14 10:29:31;;;;;;;3.35;1.10;;;;;;;44.53;37.99;98639.97;5047728;28;20104;-76
2023/08/14 10:31:57;;;;;;;1.70;1.07;;;;;;;46.00;35.39;98630.28;5046260;28;20060;-76
2023/08/14 10:34:23;;;;;;;3.10;1.00;;;;;;;44.95;35.98;98619.59;5021766;28;20855;-76
2023/08/14 10:36:52;;;;;;;1.77;1.00;;;;;;;44.06;37.44;98637.13;5018030;28;20021;-76
2023/08/14 10:39:18;;;;;;;3.40;0.93;;;;;;;43.87;38.18;98635.00;5044552;28;20139;-76
2023/08/14 10:41:44;;;;;;;3.63;1.10;;;;;;;44.02;37.48;98633.56;5035510;28;20098;-75
2023/08/14 10:44:11;;;;;;;1.73;1.20;;;;;;;45.34;36.84;98630.16;5040625;28;20029;-76
2023/08/14 10:46:43;;;;;;;2.10;1.30;;;;;;;43.90;37.66;98634.94;5043514;28;20022;-75
2023/08/14 10:49:12;;;;;;;2.67;1.30;;;;;;;46.46;35.97;98628.25;5038886;28;20055;-76
2023/08/14 10:51:41;;;;;;;3.38;1.20;;;;;;;47.41;34.79;98626.69;5024791;28;20360;-76
2023/08/14 10:54:12;;;;;;;1.35;1.20;;;;;;;46.32;34.77;98635.16;5026252;28;20053;-76
2023/08/14 10:56:42;;;;;;;1.95;1.10;;;;;;;46.04;36.60;98631.78;5022389;28;20114;-76
2023/08/14 10:59:22;;;;;;;1.67;1.20;;;;;;;44.64;36.86;98625.50;5047948;28;20021;-76
2023/08/14 11:02:12;;;;;;;3.90;1.27;;;;;;;43.31;38.66;98622.00;5048025;28;20021;-76
2023/08/14 11:05:00;;;;;;;2.63;1.10;;;;;;;42.83;39.99;98625.84;5021352;28;20041;-76
2023/08/14 11:07:36;;;;;;;3.33;1.20;;;;;;;41.07;40.89;98626.44;5027421;28;20026;-76
2023/08/14 11:10:05;;;;;;;3.30;1.20;;;;;;;40.34;45.00;98627.06;5048348;28;20048;-76
2023/08/14 11:12:31;;;;;;;2.45;1.40;;;;;;;39.39;45.99;98621.75;5047289;28;20029;-76
2023/08/14 11:14:57;;;;;;;2.75;1.58;;;;;;;38.44;46.92;98620.94;5038287;28;20026;-75
2023/08/14 11:17:24;;;;;;;2.85;1.63;;;;;;;38.33;47.37;98629.31;5027647;28;20533;-76
2023/08/14 11:19:50;;;;;;;2.80;1.52;;;;;;;36.95;49.14;98621.91;5039955;28;20029;-75
2023/08/14 11:22:15;;;;;;;3.63;1.50;;;;;;;36.73;51.57;98620.78;5023382;28;20394;-76
2023/08/14 11:24:41;;;;;;;5.40;1.60;;;;;;;35.72;56.32;98646.59;5045952;28;20079;-76
2023/08/14 11:27:07;;;;;;;5.80;1.33;;;;;;;36.33;57.08;98633.50;5045484;28;20449;-76
2023/08/14 11:29:34;;;;;;;3.35;1.42;;;;;;;36.62;59.32;98626.28;5046229;28;20020;-76